Time;durP1;ratioP1;P1;durP2;ratioP2;P2;SDS_P1;SDS_P2;PMS_P1;PMS_P2;Temp;Humidity;BMP_temperature;BMP_pressure;BME280_temperature;BME280_humidity;BME280_pressure;Samples;Min_cycle;Max_cycle;Signal;HPM_P1;HPM_P2
2022/11/22 00:01:19;;;;;;;0.68;0.68;;;;;;;;;;6122160;23;20022;-74
2022/11/22 00:03:47;;;;;;;1.13;0.75;;;;;;;;;;6123620;23;20125;-74
2022/11/22 00:06:17;;;;;;;0.57;0.57;;;;;;;;;;6123764;23;20393;-74
2022/11/22 00:08:45;;;;;;;0.10;0.10;;;;;;;;;;6122742;23;20030;-73
2022/11/22 00:11:13;;;;;;;0.93;0.40;;;;;;;;;;6122487;23;20018;-74
2022/11/22 00:13:41;;;;;;;0.20;0.20;;;;;;;;;;6123390;23;20033;-73
2022/11/22 00:16:10;;;;;;;0.22;0.22;;;;;;;;;;6121583;23;20024;-73
2022/11/22 00:18:38;;;;;;;0.25;0.25;;;;;;;;;;6122411;23;20026;-74
2022/11/22 00:21:07;;;;;;;1.60;0.95;;;;;;;;;;6121959;23;20359;-74
2022/11/22 00:23:36;;;;;;;0.20;0.20;;;;;;;;;;6123230;23;20029;-74
2022/11/22 00:26:05;;;;;;;0.20;0.20;;;;;;;;;;6122209;23;20022;-74
2022/11/22 00:28:34;;;;;;;0.43;0.43;;;;;;;;;;6122939;23;20113;-74
2022/11/22 00:31:02;;;;;;;0.10;0.10;;;;;;;;;;6121845;23;20018;-74
2022/11/22 00:33:30;;;;;;;0.30;0.30;;;;;;;;;;6122690;23;20025;-74
2022/11/22 00:35:58;;;;;;;0.75;0.43;;;;;;;;;;6122219;23;20018;-73
2022/11/22 00:38:27;;;;;;;0.82;0.50;;;;;;;;;;6122506;23;20531;-73
2022/11/22 00:40:56;;;;;;;0.65;0.40;;;;;;;;;;6122673;23;20029;-74
2022/11/22 00:43:25;;;;;;;0.88;0.75;;;;;;;;;;6123131;23;20477;-74
2022/11/22 00:45:53;;;;;;;1.17;0.50;;;;;;;;;;6121074;23;20040;-73
2022/11/22 00:48:21;;;;;;;0.98;0.57;;;;;;;;;;6123063;23;20028;-74
2022/11/22 00:50:50;;;;;;;0.98;0.75;;;;;;;;;;6122426;23;20359;-74
2022/11/22 00:53:18;;;;;;;3.78;0.85;;;;;;;;;;6122881;23;20032;-74
2022/11/22 00:55:47;;;;;;;0.60;0.40;;;;;;;;;;6121529;23;20022;-74
2022/11/22 00:58:16;;;;;;;0.25;0.25;;;;;;;;;;6123464;23;20376;-74
2022/11/22 01:00:45;;;;;;;0.43;0.43;;;;;;;;;;6121872;23;20519;-74
2022/11/22 01:03:13;;;;;;;2.22;1.20;;;;;;;;;;6122495;23;20026;-74
2022/11/22 01:05:42;;;;;;;0.47;0.47;;;;;;;;;;6122788;23;20029;-73
2022/11/22 01:08:10;;;;;;;0.20;0.20;;;;;;;;;;6122358;23;20459;-70
2022/11/22 01:10:38;;;;;;;0.35;0.35;;;;;;;;;;6122400;23;20396;-74
2022/11/22 01:13:07;;;;;;;0.38;0.38;;;;;;;;;;6123459;23;20022;-75
2022/11/22 01:15:37;;;;;;;0.65;0.47;;;;;;;;;;6120932;23;20486;-74
2022/11/22 01:18:05;;;;;;;0.80;0.35;;;;;;;;;;6122890;23;20032;-74
2022/11/22 01:20:33;;;;;;;1.27;0.55;;;;;;;;;;6121212;23;20041;-74
2022/11/22 01:23:02;;;;;;;0.22;0.22;;;;;;;;;;6122709;23;20033;-74
2022/11/22 01:25:30;;;;;;;0.80;0.40;;;;;;;;;;6122120;23;20032;-74
2022/11/22 01:27:58;;;;;;;3.72;0.60;;;;;;;;;;6123187;23;20030;-74
2022/11/22 01:30:26;;;;;;;0.30;0.30;;;;;;;;;;6121833;23;20030;-73
2022/11/22 01:32:56;;;;;;;1.63;0.63;;;;;;;;;;6122111;23;20018;-74
2022/11/22 01:35:24;;;;;;;0.40;0.40;;;;;;;;;;6121753;23;20029;-73
2022/11/22 01:37:53;;;;;;;0.25;0.25;;;;;;;;;;6123021;23;20029;-73
2022/11/22 01:40:21;;;;;;;0.30;0.30;;;;;;;;;;6120273;23;20041;-75
2022/11/22 01:42:51;;;;;;;0.50;0.50;;;;;;;;;;6123854;23;20026;-74
2022/11/22 01:45:39;;;;;;;0.77;0.43;;;;;;;;;;6120735;23;20025;-74
2022/11/22 01:48:16;;;;;;;0.85;0.35;;;;;;;;;;6122753;23;20340;-73
2022/11/22 01:50:45;;;;;;;2.28;1.20;;;;;;;;;;6121934;23;20022;-74
2022/11/22 01:53:16;;;;;;;0.30;0.22;;;;;;;;;;6122128;23;20125;-74
2022/11/22 01:55:45;;;;;;;0.55;0.30;;;;;;;;;;6121339;23;20029;-74
2022/11/22 01:58:15;;;;;;;0.95;0.63;;;;;;;;;;6122429;23;20037;-73
2022/11/22 02:00:44;;;;;;;0.77;0.52;;;;;;;;;;6121852;23;20026;-74
2022/11/22 02:03:15;;;;;;;0.30;0.30;;;;;;;;;;6122793;23;20022;-74
2022/11/22 02:05:43;;;;;;;1.20;0.95;;;;;;;;;;6122147;23;20347;-74
2022/11/22 02:08:15;;;;;;;0.40;0.32;;;;;;;;;;6123128;23;20101;-73
2022/11/22 02:10:45;;;;;;;1.58;0.60;;;;;;;;;;6120947;23;20022;-74
2022/11/22 02:13:14;;;;;;;0.20;0.20;;;;;;;;;;6121032;23;20416;-74
2022/11/22 02:15:42;;;;;;;0.50;0.50;;;;;;;;;;6122645;23;20104;-74
2022/11/22 02:18:11;;;;;;;1.75;0.32;;;;;;;;;;6119693;23;20022;-74
2022/11/22 02:20:40;;;;;;;1.05;0.73;;;;;;;;;;6121662;23;20022;-73
2022/11/22 02:23:12;;;;;;;0.55;0.52;;;;;;;;;;6123343;23;20037;-74
2022/11/22 02:25:55;;;;;;;0.30;0.30;;;;;;;;;;6122758;23;20351;-74
2022/11/22 02:28:24;;;;;;;0.20;0.20;;;;;;;;;;6123330;23;20475;-73
2022/11/22 02:30:52;;;;;;;0.45;0.40;;;;;;;;;;6124542;23;20026;-74
2022/11/22 02:33:20;;;;;;;0.73;0.60;;;;;;;;;;6124789;23;20347;-74
2022/11/22 02:35:49;;;;;;;0.40;0.40;;;;;;;;;;6123528;23;20037;-74
2022/11/22 02:38:18;;;;;;;0.45;0.38;;;;;;;;;;6122954;23;20467;-74
2022/11/22 02:40:50;;;;;;;0.93;0.90;;;;;;;;;;6123824;23;20022;-74
2022/11/22 02:43:21;;;;;;;0.47;0.47;;;;;;;;;;6124011;23;20038;-74
2022/11/22 02:45:49;;;;;;;0.88;0.52;;;;;;;;;;6124115;23;20030;-74
2022/11/22 02:48:18;;;;;;;0.13;0.13;;;;;;;;;;6121479;23;20025;-75
2022/11/22 02:50:47;;;;;;;0.20;0.20;;;;;;;;;;6124139;23;20033;-74
2022/11/22 02:53:15;;;;;;;0.60;0.30;;;;;;;;;;6124753;23;20053;-73
2022/11/22 02:55:43;;;;;;;0.38;0.30;;;;;;;;;;6124089;23;20026;-72
2022/11/22 02:58:11;;;;;;;0.20;0.20;;;;;;;;;;6123066;23;20034;-72
2022/11/22 03:00:41;;;;;;;0.55;0.52;;;;;;;;;;6124428;23;20022;-72
2022/11/22 03:03:09;;;;;;;0.40;0.40;;;;;;;;;;6121266;23;20096;-72
2022/11/22 03:05:38;;;;;;;0.50;0.50;;;;;;;;;;6124621;23;20022;-72
2022/11/22 03:08:06;;;;;;;0.32;0.15;;;;;;;;;;6121694;23;20025;-71
2022/11/22 03:10:34;;;;;;;0.10;0.10;;;;;;;;;;6123473;23;20033;-71
2022/11/22 03:13:03;;;;;;;0.10;0.10;;;;;;;;;;6124101;23;20403;-71
2022/11/22 03:15:31;;;;;;;0.20;0.20;;;;;;;;;;6123738;23;20019;-72
2022/11/22 03:18:01;;;;;;;0.20;0.20;;;;;;;;;;6123399;23;20032;-73
2022/11/22 03:20:29;;;;;;;0.28;0.28;;;;;;;;;;6122901;23;20033;-74
2022/11/22 03:22:57;;;;;;;1.00;0.50;;;;;;;;;;6123987;23;20022;-74
2022/11/22 03:25:26;;;;;;;0.10;0.10;;;;;;;;;;6124075;23;20100;-74
2022/11/22 03:27:55;;;;;;;0.20;0.20;;;;;;;;;;6123310;23;20021;-73
2022/11/22 03:30:23;;;;;;;0.38;0.38;;;;;;;;;;6123184;23;20026;-74
2022/11/22 03:32:51;;;;;;;0.20;0.20;;;;;;;;;;6124417;23;20018;-74
2022/11/22 03:35:21;;;;;;;0.10;0.10;;;;;;;;;;6122464;23;20035;-74
2022/11/22 03:37:49;;;;;;;0.50;0.20;;;;;;;;;;6123997;23;20049;-74
2022/11/22 03:40:17;;;;;;;0.13;0.13;;;;;;;;;;6121815;23;20457;-73
2022/11/22 03:42:46;;;;;;;0.10;0.10;;;;;;;;;;6122261;23;20022;-74
2022/11/22 03:45:14;;;;;;;0.50;0.40;;;;;;;;;;6124911;23;20018;-74
2022/11/22 03:47:42;;;;;;;0.28;0.28;;;;;;;;;;6123156;23;20028;-75
2022/11/22 03:50:10;;;;;;;0.30;0.30;;;;;;;;;;6122951;23;20022;-75
2022/11/22 03:52:40;;;;;;;0.50;0.50;;;;;;;;;;6124585;23;20026;-76
2022/11/22 03:55:08;;;;;;;0.10;0.10;;;;;;;;;;6123094;23;20029;-76
2022/11/22 03:57:37;;;;;;;0.30;0.30;;;;;;;;;;6123257;23;20033;-75
2022/11/22 04:00:06;;;;;;;0.63;0.43;;;;;;;;;;6122289;23;20022;-75
2022/11/22 04:02:34;;;;;;;0.20;0.20;;;;;;;;;;6123510;23;20025;-75
2022/11/22 04:05:03;;;;;;;0.20;0.20;;;;;;;;;;6122699;23;20108;-75
2022/11/22 04:07:31;;;;;;;0.25;0.20;;;;;;;;;;6121495;23;20018;-75
2022/11/22 04:10:01;;;;;;;0.10;0.10;;;;;;;;;;6121597;23;20030;-75
2022/11/22 04:12:30;;;;;;;0.20;0.20;;;;;;;;;;6123820;23;20077;-75
2022/11/22 04:15:06;;;;;;;0.10;0.10;;;;;;;;;;6122588;23;20036;-75
2022/11/22 04:17:40;;;;;;;0.10;0.10;;;;;;;;;;6122281;23;20029;-75
2022/11/22 04:22:56;;;;;;;0.10;0.10;;;;;;;;;;6123848;23;20056;-75
2022/11/22 04:25:26;;;;;;;0.20;0.20;;;;;;;;;;6122952;23;20028;-76
2022/11/22 04:27:54;;;;;;;0.30;0.30;;;;;;;;;;6120482;23;20467;-75
2022/11/22 04:32:44;;;;;;;0.17;0.17;;;;;;;;;;6123089;23;20040;-75
2022/11/22 04:33:13;;;;;;;0.20;0.20;;;;;;;;;;6122772;23;20029;-75
2022/11/22 04:35:42;;;;;;;0.52;0.10;;;;;;;;;;6122086;23;20376;-76
2022/11/22 04:38:10;;;;;;;0.13;0.13;;;;;;;;;;6121412;23;20030;-75
2022/11/22 04:40:40;;;;;;;0.30;0.30;;;;;;;;;;6120518;23;20029;-76
2022/11/22 04:45:54;;;;;;;0.30;0.30;;;;;;;;;;6122700;23;20470;-75
2022/11/22 04:48:22;;;;;;;0.20;0.20;;;;;;;;;;6121835;23;20029;-76
2022/11/22 04:53:37;;;;;;;0.20;0.20;;;;;;;;;;6121524;23;20032;-76
2022/11/22 04:56:07;;;;;;;0.10;0.10;;;;;;;;;;6121391;23;20026;-75
2022/11/22 04:58:35;;;;;;;0.20;0.20;;;;;;;;;;6122199;23;20025;-75
2022/11/22 05:01:03;;;;;;;0.22;0.22;;;;;;;;;;6123258;23;20515;-76
2022/11/22 05:03:32;;;;;;;0.10;0.10;;;;;;;;;;6122889;23;20030;-76
2022/11/22 05:06:02;;;;;;;0.40;0.20;;;;;;;;;;6122810;23;20026;-75
2022/11/22 05:08:30;;;;;;;0.10;0.10;;;;;;;;;;6121245;23;20028;-75
2022/11/22 05:10:59;;;;;;;0.65;0.28;;;;;;;;;;6121693;23;20100;-75
2022/11/22 05:13:30;;;;;;;0.10;0.10;;;;;;;;;;6121601;23;20329;-75
2022/11/22 05:15:59;;;;;;;0.20;0.20;;;;;;;;;;6123365;23;20034;-75
2022/11/22 05:18:27;;;;;;;1.15;0.40;;;;;;;;;;6122259;23;20022;-76
2022/11/22 05:20:56;;;;;;;0.10;0.10;;;;;;;;;;6122619;23;20018;-75
2022/11/22 05:26:11;;;;;;;0.10;0.10;;;;;;;;;;6122789;23;20021;-75
2022/11/22 05:28:40;;;;;;;0.17;0.17;;;;;;;;;;6122546;23;20030;-75
2022/11/22 05:31:09;;;;;;;0.10;0.10;;;;;;;;;;6121099;23;20033;-76
2022/11/22 05:33:38;;;;;;;0.10;0.10;;;;;;;;;;6123420;23;20022;-75
2022/11/22 05:36:07;;;;;;;0.52;0.38;;;;;;;;;;6123724;23;20256;-75
2022/11/22 05:38:36;;;;;;;0.20;0.13;;;;;;;;;;6123177;23;20377;-75
2022/11/22 05:41:05;;;;;;;0.22;0.22;;;;;;;;;;6120214;23;20072;-76
2022/11/22 05:43:33;;;;;;;3.50;0.20;;;;;;;;;;6122253;23;20018;-75
2022/11/22 05:46:07;;;;;;;0.10;0.10;;;;;;;;;;6119546;23;20092;-76
2022/11/22 05:48:35;;;;;;;0.13;0.13;;;;;;;;;;6107758;23;20022;-76
2022/11/22 05:51:07;;;;;;;0.13;0.13;;;;;;;;;;6121331;23;20037;-75
2022/11/22 05:53:36;;;;;;;0.25;0.25;;;;;;;;;;6122040;23;20321;-76
2022/11/22 05:56:05;;;;;;;0.10;0.10;;;;;;;;;;6120779;23;20026;-75
2022/11/22 05:58:34;;;;;;;0.30;0.30;;;;;;;;;;6121232;23;20022;-75
2022/11/22 06:01:07;;;;;;;0.17;0.17;;;;;;;;;;6120087;23;20474;-75
2022/11/22 06:03:36;;;;;;;0.10;0.10;;;;;;;;;;6121953;23;20070;-76
2022/11/22 06:06:05;;;;;;;0.17;0.17;;;;;;;;;;6124662;23;20224;-75
2022/11/22 06:08:34;;;;;;;2.65;0.20;;;;;;;;;;6121687;23;20021;-75
2022/11/22 06:11:06;;;;;;;0.35;0.35;;;;;;;;;;6120935;23;20033;-76
2022/11/22 06:13:35;;;;;;;0.45;0.45;;;;;;;;;;6123529;23;20022;-75
2022/11/22 06:16:04;;;;;;;2.67;0.20;;;;;;;;;;6123953;23;20080;-76
2022/11/22 06:18:34;;;;;;;0.28;0.28;;;;;;;;;;6124610;23;20022;-75
2022/11/22 06:21:03;;;;;;;0.20;0.20;;;;;;;;;;6124631;23;20018;-75
2022/11/22 06:23:32;;;;;;;0.17;0.17;;;;;;;;;;6123930;23;20061;-75
2022/11/22 06:26:00;;;;;;;0.35;0.30;;;;;;;;;;6124734;23;20024;-75
2022/11/22 06:28:29;;;;;;;0.20;0.15;;;;;;;;;;6124005;23;20024;-75
2022/11/22 06:31:01;;;;;;;0.10;0.10;;;;;;;;;;6122913;23;20029;-75
2022/11/22 06:33:29;;;;;;;0.25;0.25;;;;;;;;;;6123181;23;20029;-77
2022/11/22 06:36:03;;;;;;;0.50;0.50;;;;;;;;;;6119399;23;20021;-76
2022/11/22 06:38:31;;;;;;;0.30;0.30;;;;;;;;;;6121866;23;20518;-75
2022/11/22 06:41:00;;;;;;;0.40;0.20;;;;;;;;;;6120331;23;20026;-73
2022/11/22 06:43:29;;;;;;;0.10;0.10;;;;;;;;;;6123888;23;20105;-73
2022/11/22 06:45:57;;;;;;;0.10;0.10;;;;;;;;;;6121398;23;20028;-73
2022/11/22 06:48:26;;;;;;;0.28;0.28;;;;;;;;;;6121522;23;20026;-73
2022/11/22 06:50:59;;;;;;;0.35;0.25;;;;;;;;;;6122584;23;20387;-73
2022/11/22 06:53:29;;;;;;;0.20;0.20;;;;;;;;;;6122200;23;20033;-73
2022/11/22 06:56:16;;;;;;;0.35;0.35;;;;;;;;;;6122392;23;20471;-71
2022/11/22 06:58:45;;;;;;;0.93;0.88;;;;;;;;;;6123010;23;20100;-73
2022/11/22 07:01:15;;;;;;;0.50;0.50;;;;;;;;;;6124140;23;20153;-73
2022/11/22 07:03:44;;;;;;;0.15;0.15;;;;;;;;;;6125336;23;20028;-73
2022/11/22 07:06:13;;;;;;;0.40;0.40;;;;;;;;;;6125274;23;20364;-73
2022/11/22 07:08:43;;;;;;;0.10;0.10;;;;;;;;;;6123224;23;20022;-73
2022/11/22 07:11:13;;;;;;;1.67;0.68;;;;;;;;;;6124610;23;20155;-73
2022/11/22 07:13:42;;;;;;;0.90;0.43;;;;;;;;;;6125154;23;20026;-73
2022/11/22 07:16:11;;;;;;;0.45;0.28;;;;;;;;;;6123753;23;20033;-73
2022/11/22 07:18:40;;;;;;;1.35;0.57;;;;;;;;;;6124110;23;20032;-73
2022/11/22 07:21:09;;;;;;;0.30;0.30;;;;;;;;;;6122764;23;20109;-73
2022/11/22 07:23:41;;;;;;;0.73;0.73;;;;;;;;;;6123676;23;20104;-73
2022/11/22 07:26:11;;;;;;;0.30;0.30;;;;;;;;;;6123883;23;20026;-73
2022/11/22 07:28:39;;;;;;;0.15;0.15;;;;;;;;;;6123165;23;20022;-73
2022/11/22 07:31:08;;;;;;;0.10;0.10;;;;;;;;;;6122030;23;20108;-73
2022/11/22 07:33:37;;;;;;;0.50;0.50;;;;;;;;;;6123538;23;20104;-73
2022/11/22 07:36:07;;;;;;;0.68;0.68;;;;;;;;;;6122839;23;20022;-73
2022/11/22 07:38:35;;;;;;;1.30;0.30;;;;;;;;;;6122466;23;20028;-73
2022/11/22 07:41:03;;;;;;;3.63;1.05;;;;;;;;;;6122552;23;20137;-74
2022/11/22 07:43:33;;;;;;;1.95;0.85;;;;;;;;;;6124024;23;20096;-73
2022/11/22 07:46:02;;;;;;;1.27;0.93;;;;;;;;;;6123529;23;20097;-73
2022/11/22 07:48:30;;;;;;;0.32;0.32;;;;;;;;;;6123855;23;20030;-73
2022/11/22 07:51:03;;;;;;;0.40;0.40;;;;;;;;;;6123022;23;20040;-74
2022/11/22 07:53:31;;;;;;;0.80;0.63;;;;;;;;;;6122297;23;20029;-74
2022/11/22 07:56:02;;;;;;;0.70;0.70;;;;;;;;;;6121541;23;20022;-73
2022/11/22 07:58:30;;;;;;;0.43;0.40;;;;;;;;;;6123548;23;20118;-73
2022/11/22 08:01:04;;;;;;;1.27;0.90;;;;;;;;;;6123334;23;20105;-73
2022/11/22 08:03:33;;;;;;;1.38;0.50;;;;;;;;;;6123444;23;20022;-73
2022/11/22 08:06:01;;;;;;;0.52;0.52;;;;;;;;;;6122494;23;20419;-73
2022/11/22 08:08:30;;;;;;;0.60;0.60;;;;;;;;;;6122468;23;20050;-73
2022/11/22 08:10:59;;;;;;;3.40;1.20;;;;;;;;;;6123408;23;20822;-74
2022/11/22 08:13:27;;;;;;;2.28;0.82;;;;;;;;;;6123241;23;20026;-74
2022/11/22 08:15:56;;;;;;;0.60;0.60;;;;;;;;;;6124305;23;20064;-73
2022/11/22 08:18:33;;;;;;;0.40;0.20;;;;;;;;;;6123059;23;20113;-73
2022/11/22 08:21:03;;;;;;;0.40;0.40;;;;;;;;;;6123379;23;20089;-73
2022/11/22 08:23:31;;;;;;;0.13;0.13;;;;;;;;;;6124895;23;20072;-73
2022/11/22 08:26:00;;;;;;;2.65;0.93;;;;;;;;;;6124122;23;20356;-73
2022/11/22 08:28:29;;;;;;;0.40;0.40;;;;;;;;;;6121588;23;20444;-73
2022/11/22 08:31:01;;;;;;;1.15;0.50;;;;;;;;;;6123113;23;20022;-73
2022/11/22 08:33:30;;;;;;;0.32;0.32;;;;;;;;;;6124041;23;20078;-73
2022/11/22 08:36:00;;;;;;;1.23;0.45;;;;;;;;;;6124081;23;20026;-75
2022/11/22 08:38:28;;;;;;;1.40;0.43;;;;;;;;;;6120860;23;20052;-73
2022/11/22 08:40:57;;;;;;;7.68;1.05;;;;;;;;;;6121949;23;20062;-73
2022/11/22 08:43:26;;;;;;;0.75;0.47;;;;;;;;;;6123920;23;20018;-73
2022/11/22 08:45:56;;;;;;;0.77;0.60;;;;;;;;;;6124239;23;20033;-73
2022/11/22 08:48:25;;;;;;;1.10;0.40;;;;;;;;;;6122657;23;20078;-73
2022/11/22 08:50:54;;;;;;;0.30;0.30;;;;;;;;;;6122896;23;20085;-74
2022/11/22 08:53:24;;;;;;;1.17;1.08;;;;;;;;;;6123349;23;20072;-74
2022/11/22 08:55:53;;;;;;;1.05;0.80;;;;;;;;;;6123142;23;20460;-74
2022/11/22 08:58:22;;;;;;;1.13;0.57;;;;;;;;;;6123409;23;20113;-73
2022/11/22 09:00:51;;;;;;;2.15;0.45;;;;;;;;;;6123371;23;20388;-74
2022/11/22 09:03:19;;;;;;;0.35;0.35;;;;;;;;;;6123708;23;20068;-74
2022/11/22 09:05:48;;;;;;;2.85;0.85;;;;;;;;;;6123505;23;20022;-74
2022/11/22 09:08:38;;;;;;;1.10;0.77;;;;;;;;;;6123555;23;20447;-74
2022/11/22 09:11:12;;;;;;;1.88;1.10;;;;;;;;;;6123657;23;20064;-74
2022/11/22 09:13:41;;;;;;;1.27;0.50;;;;;;;;;;6123877;23;20026;-74
2022/11/22 09:16:11;;;;;;;0.98;0.88;;;;;;;;;;6122622;23;20451;-74
2022/11/22 09:18:40;;;;;;;0.40;0.40;;;;;;;;;;6121874;23;20093;-74
2022/11/22 09:21:09;;;;;;;1.02;1.02;;;;;;;;;;6122023;23;20081;-74
2022/11/22 09:23:39;;;;;;;1.10;1.00;;;;;;;;;;6123829;23;20053;-74
2022/11/22 09:26:09;;;;;;;1.50;0.93;;;;;;;;;;6123646;23;20033;-74
2022/11/22 09:28:38;;;;;;;1.27;0.90;;;;;;;;;;6123376;23;20870;-74
2022/11/22 09:31:08;;;;;;;0.30;0.30;;;;;;;;;;6122361;23;20021;-74
2022/11/22 09:33:37;;;;;;;3.30;1.35;;;;;;;;;;6122260;23;20045;-74
2022/11/22 09:36:06;;;;;;;0.68;0.60;;;;;;;;;;6121874;23;20022;-74
2022/11/22 09:38:35;;;;;;;0.55;0.55;;;;;;;;;;6122337;23;20061;-74
2022/11/22 09:41:17;;;;;;;0.85;0.63;;;;;;;;;;6122789;23;20025;-73
2022/11/22 09:43:50;;;;;;;1.10;0.30;;;;;;;;;;6122874;23;20034;-73
2022/11/22 09:46:23;;;;;;;0.80;0.65;;;;;;;;;;6123868;23;20022;-74
2022/11/22 09:48:58;;;;;;;1.00;0.90;;;;;;;;;;6122970;23;20025;-74
2022/11/22 09:51:29;;;;;;;0.77;0.57;;;;;;;;;;6121615;23;20026;-74
2022/11/22 09:54:00;;;;;;;0.40;0.30;;;;;;;;;;6123859;23;20030;-74
2022/11/22 09:56:31;;;;;;;0.50;0.50;;;;;;;;;;6123189;23;20026;-74
2022/11/22 09:59:03;;;;;;;0.63;0.63;;;;;;;;;;6121855;23;20021;-73
2022/11/22 10:01:34;;;;;;;5.28;1.05;;;;;;;;;;6121190;23;20400;-74
2022/11/22 10:04:05;;;;;;;0.70;0.30;;;;;;;;;;6123442;23;20026;-74
2022/11/22 10:06:35;;;;;;;0.20;0.20;;;;;;;;;;6122019;23;20053;-74
2022/11/22 10:09:11;;;;;;;0.55;0.55;;;;;;;;;;6123130;23;20347;-74
2022/11/22 10:11:45;;;;;;;0.45;0.40;;;;;;;;;;6122113;23;20077;-75
2022/11/22 10:14:20;;;;;;;1.05;0.65;;;;;;;;;;6122992;23;20022;-74
2022/11/22 10:16:51;;;;;;;0.17;0.17;;;;;;;;;;6123856;23;20463;-74
2022/11/22 10:19:23;;;;;;;1.02;0.30;;;;;;;;;;6123395;23;20082;-75
2022/11/22 10:21:52;;;;;;;5.25;1.20;;;;;;;;;;6123019;23;20026;-75
2022/11/22 10:24:20;;;;;;;0.20;0.20;;;;;;;;;;6124089;23;20041;-74
2022/11/22 10:26:50;;;;;;;0.75;0.30;;;;;;;;;;6122130;23;20368;-74
2022/11/22 10:29:32;;;;;;;0.30;0.30;;;;;;;;;;6121715;23;20029;-75
2022/11/22 10:32:05;;;;;;;1.65;0.75;;;;;;;;;;6123073;23;20029;-74
2022/11/22 10:34:40;;;;;;;0.55;0.45;;;;;;;;;;6123576;23;20372;-74
2022/11/22 10:37:14;;;;;;;0.38;0.38;;;;;;;;;;6123322;23;20057;-74
2022/11/22 10:39:49;;;;;;;0.57;0.40;;;;;;;;;;6122642;23;20022;-74
2022/11/22 10:42:26;;;;;;;0.10;0.10;;;;;;;;;;6122508;23;20057;-74
2022/11/22 10:44:57;;;;;;;3.55;0.30;;;;;;;;;;6123746;23;20057;-75
2022/11/22 10:47:38;;;;;;;4.57;0.75;;;;;;;;;;6123631;23;20022;-74
2022/11/22 10:50:13;;;;;;;0.55;0.40;;;;;;;;;;6124517;23;20030;-75
2022/11/22 10:52:45;;;;;;;0.65;0.57;;;;;;;;;;6123873;23;20028;-74
2022/11/22 10:55:22;;;;;;;0.57;0.40;;;;;;;;;;6126169;23;20125;-74
2022/11/22 10:57:58;;;;;;;0.10;0.10;;;;;;;;;;6125127;23;20526;-74
2022/11/22 11:00:28;;;;;;;0.25;0.25;;;;;;;;;;6124122;23;20471;-74
2022/11/22 11:03:05;;;;;;;4.05;0.50;;;;;;;;;;6125275;23;20026;-74
2022/11/22 11:05:35;;;;;;;2.20;2.00;;;;;;;;;;6125155;23;20022;-74
2022/11/22 11:08:05;;;;;;;0.20;0.20;;;;;;;;;;6125090;23;20022;-74
2022/11/22 11:10:53;;;;;;;0.55;0.50;;;;;;;;;;6081782;23;20354;-74
2022/11/22 11:13:25;;;;;;;0.50;0.50;;;;;;;;;;6125044;23;20101;-74
2022/11/22 11:15:54;;;;;;;1.60;0.70;;;;;;;;;;6124454;23;20445;-74
2022/11/22 11:18:26;;;;;;;0.20;0.20;;;;;;;;;;6124367;23;20396;-74
2022/11/22 11:20:54;;;;;;;1.17;0.88;;;;;;;;;;6124294;23;20053;-74
2022/11/22 11:23:23;;;;;;;0.40;0.40;;;;;;;;;;6125447;23;20024;-74
2022/11/22 11:25:51;;;;;;;0.15;0.15;;;;;;;;;;6124973;23;20022;-74
2022/11/22 11:28:20;;;;;;;0.52;0.40;;;;;;;;;;6123416;23;20021;-75
2022/11/22 11:30:51;;;;;;;0.25;0.22;;;;;;;;;;6123314;23;20022;-74
2022/11/22 11:33:27;;;;;;;0.35;0.20;;;;;;;;;;6124483;23;20343;-74
2022/11/22 11:35:57;;;;;;;0.20;0.20;;;;;;;;;;6125083;23;20033;-75
2022/11/22 11:38:29;;;;;;;3.13;0.43;;;;;;;;;;6124929;23;22875;-73
2022/11/22 11:40:58;;;;;;;0.32;0.32;;;;;;;;;;6124407;23;20097;-74
2022/11/22 11:43:26;;;;;;;0.05;0.05;;;;;;;;;;6124859;23;20022;-74
2022/11/22 11:46:04;;;;;;;0.25;0.17;;;;;;;;;;6121996;23;20057;-74
2022/11/22 11:48:39;;;;;;;0.35;0.35;;;;;;;;;;6123546;23;20112;-73
2022/11/22 11:51:14;;;;;;;0.15;0.15;;;;;;;;;;6125226;23;20022;-73
2022/11/22 11:53:44;;;;;;;1.55;0.47;;;;;;;;;;6123040;23;20030;-73
2022/11/22 11:56:19;;;;;;;0.20;0.20;;;;;;;;;;6123619;23;20022;-73
2022/11/22 11:58:47;;;;;;;;;;;;;;;;;;6123452;23;20032;-73
2022/11/22 12:01:20;;;;;;;0.40;0.40;;;;;;;;;;6123438;23;20278;-73
2022/11/22 12:03:52;;;;;;;0.57;0.57;;;;;;;;;;6121446;23;20405;-73
2022/11/22 12:06:20;;;;;;;0.15;0.15;;;;;;;;;;6121543;23;20026;-74
2022/11/22 12:08:49;;;;;;;1.08;0.50;;;;;;;;;;6123376;23;20108;-73
2022/11/22 12:11:21;;;;;;;0.32;0.30;;;;;;;;;;6124753;23;20022;-73
2022/11/22 12:13:51;;;;;;;0.20;0.20;;;;;;;;;;6124137;23;20018;-74
2022/11/22 12:16:41;;;;;;;0.32;0.32;;;;;;;;;;6124014;23;20018;-73
2022/11/22 12:19:15;;;;;;;0.38;0.38;;;;;;;;;;6123800;23;20049;-73
2022/11/22 12:21:55;;;;;;;4.57;1.40;;;;;;;;;;6123699;23;20058;-73
2022/11/22 12:24:26;;;;;;;0.68;0.68;;;;;;;;;;6119856;23;20025;-73
2022/11/22 12:27:14;;;;;;;0.43;0.25;;;;;;;;;;6123508;23;20029;-73
2022/11/22 12:29:44;;;;;;;0.10;0.10;;;;;;;;;;6123248;23;20502;-74
2022/11/22 12:32:17;;;;;;;0.22;0.22;;;;;;;;;;6123886;23;20026;-73
2022/11/22 12:34:50;;;;;;;0.30;0.30;;;;;;;;;;6123414;23;20073;-74
2022/11/22 12:37:20;;;;;;;1.02;0.30;;;;;;;;;;6124099;23;20018;-73
2022/11/22 12:39:50;;;;;;;2.90;0.40;;;;;;;;;;6122612;23;20022;-73
2022/11/22 12:42:20;;;;;;;0.20;0.20;;;;;;;;;;6124213;23;20108;-74
2022/11/22 12:44:54;;;;;;;1.13;0.30;;;;;;;;;;6123506;23;20024;-74
2022/11/22 12:47:35;;;;;;;1.45;0.95;;;;;;;;;;6122746;23;20078;-74
2022/11/22 12:50:08;;;;;;;0.75;0.63;;;;;;;;;;6121795;23;20393;-73
2022/11/22 12:52:40;;;;;;;0.10;0.10;;;;;;;;;;6124260;23;20022;-73
2022/11/22 12:55:14;;;;;;;0.20;0.20;;;;;;;;;;6123271;23;20022;-73
2022/11/22 12:57:45;;;;;;;0.20;0.20;;;;;;;;;;6124399;23;20089;-73
2022/11/22 13:00:16;;;;;;;0.40;0.40;;;;;;;;;;6122708;23;20105;-73
2022/11/22 13:02:53;;;;;;;0.47;0.40;;;;;;;;;;6122518;23;20093;-72
2022/11/22 13:05:28;;;;;;;0.20;0.20;;;;;;;;;;6120600;23;20113;-72
2022/11/22 13:07:59;;;;;;;0.10;0.10;;;;;;;;;;6123845;23;20022;-73
2022/11/22 13:10:32;;;;;;;0.15;0.15;;;;;;;;;;6122191;23;20037;-72
2022/11/22 13:13:02;;;;;;;1.35;0.38;;;;;;;;;;6123830;23;20058;-72
2022/11/22 13:15:31;;;;;;;0.30;0.22;;;;;;;;;;6123996;23;20033;-72
2022/11/22 13:18:01;;;;;;;3.75;0.32;;;;;;;;;;6123216;23;20455;-72
2022/11/22 13:20:34;;;;;;;0.20;0.20;;;;;;;;;;6121366;23;20034;-72
2022/11/22 13:23:18;;;;;;;0.17;0.17;;;;;;;;;;6122813;23;20034;-72
2022/11/22 13:25:53;;;;;;;0.15;0.15;;;;;;;;;;6121550;23;20053;-72
2022/11/22 13:28:23;;;;;;;0.20;0.20;;;;;;;;;;6122323;23;20076;-72
2022/11/22 13:31:05;;;;;;;0.25;0.25;;;;;;;;;;6122822;23;20041;-72
2022/11/22 13:33:35;;;;;;;1.42;0.32;;;;;;;;;;6123767;23;20022;-72
2022/11/22 13:36:31;;;;;;;0.20;0.20;;;;;;;;;;6123388;23;20065;-72
2022/11/22 13:39:00;;;;;;;0.17;0.17;;;;;;;;;;6071604;23;20034;-72
2022/11/22 13:41:30;;;;;;;0.10;0.10;;;;;;;;;;6122400;23;20054;-72
2022/11/22 13:43:59;;;;;;;0.45;0.30;;;;;;;;;;6123669;23;20021;-72
2022/11/22 13:46:52;;;;;;;0.80;0.30;;;;;;;;;;6122619;23;20029;-72
2022/11/22 13:49:41;;;;;;;0.20;0.20;;;;;;;;;;6122498;23;20047;-72
2022/11/22 13:52:29;;;;;;;0.43;0.25;;;;;;;;;;6123684;23;20397;-73
2022/11/22 13:55:03;;;;;;;3.72;0.30;;;;;;;;;;6122626;23;20030;-73
2022/11/22 13:57:33;;;;;;;4.25;0.50;;;;;;;;;;6122101;23;20472;-72
2022/11/22 14:00:29;;;;;;;1.80;0.70;;;;;;;;;;6122512;23;20047;-72
2022/11/22 14:03:18;;;;;;;0.45;0.30;;;;;;;;;;6121280;23;20102;-72
2022/11/22 14:05:48;;;;;;;0.20;0.20;;;;;;;;;;6123718;23;20022;-72
2022/11/22 14:08:27;;;;;;;0.40;0.40;;;;;;;;;;6118251;23;20449;-72
2022/11/22 14:11:06;;;;;;;0.55;0.30;;;;;;;;;;6119446;23;20018;-72
2022/11/22 14:13:40;;;;;;;1.15;0.30;;;;;;;;;;6118985;23;20026;-72
2022/11/22 14:16:17;;;;;;;0.45;0.45;;;;;;;;;;6118722;23;20428;-72
2022/11/22 14:18:58;;;;;;;0.20;0.20;;;;;;;;;;6119343;23;20714;-72
2022/11/22 14:21:44;;;;;;;0.20;0.20;;;;;;;;;;6123793;23;20053;-72
2022/11/22 14:24:16;;;;;;;0.20;0.20;;;;;;;;;;6124822;23;20376;-72
2022/11/22 14:26:49;;;;;;;0.30;0.30;;;;;;;;;;6122404;23;20500;-72
2022/11/22 14:29:31;;;;;;;0.10;0.10;;;;;;;;;;6123646;23;20566;-72
2022/11/22 14:32:02;;;;;;;0.30;0.30;;;;;;;;;;6125108;23;20104;-73
2022/11/22 14:34:31;;;;;;;0.70;0.30;;;;;;;;;;6125313;23;20451;-73
2022/11/22 14:37:27;;;;;;;1.38;0.68;;;;;;;;;;6123886;23;20061;-73
2022/11/22 14:40:04;;;;;;;5.88;1.00;;;;;;;;;;6063556;23;20026;-72
2022/11/22 14:42:50;;;;;;;0.20;0.20;;;;;;;;;;6125316;23;20053;-73
2022/11/22 14:45:21;;;;;;;1.25;0.60;;;;;;;;;;6123540;23;20033;-74
2022/11/22 14:47:57;;;;;;;0.47;0.30;;;;;;;;;;6120530;23;20021;-72
2022/11/22 14:50:26;;;;;;;0.17;0.17;;;;;;;;;;6122009;23;20021;-73
2022/11/22 14:52:57;;;;;;;0.63;0.30;;;;;;;;;;6124496;23;20571;-73
2022/11/22 14:55:28;;;;;;;0.35;0.35;;;;;;;;;;6121127;23;20024;-73
2022/11/22 14:57:59;;;;;;;0.22;0.22;;;;;;;;;;6124262;23;20018;-73
2022/11/22 15:00:34;;;;;;;0.20;0.20;;;;;;;;;;6123912;23;20022;-74
2022/11/22 15:03:14;;;;;;;0.40;0.30;;;;;;;;;;6124401;23;20022;-74
2022/11/22 15:06:03;;;;;;;0.40;0.40;;;;;;;;;;6124295;23;20076;-73
2022/11/22 15:08:58;;;;;;;0.30;0.30;;;;;;;;;;6097684;23;20018;-73
2022/11/22 15:11:59;;;;;;;0.40;0.20;;;;;;;;;;6124898;23;20028;-73
2022/11/22 15:15:01;;;;;;;1.63;0.30;;;;;;;;;;6125005;23;20018;-72
2022/11/22 15:17:51;;;;;;;1.88;0.45;;;;;;;;;;6034232;23;20033;-72
2022/11/22 15:20:40;;;;;;;0.22;0.22;;;;;;;;;;5989759;23;20027;-71